createdAt,value
2019-04-03T00:00:39.735Z,919.94
2019-04-03T00:01:40.011Z,919.95
2019-04-03T00:02:38.472Z,919.97
2019-04-03T00:03:38.461Z,919.92
2019-04-03T00:04:38.494Z,919.94
2019-04-03T00:05:40.464Z,919.95
2019-04-03T00:06:38.509Z,919.96
2019-04-03T00:07:38.482Z,919.92
2019-04-03T00:08:38.454Z,919.90
2019-04-03T00:09:38.414Z,919.91
2019-04-03T00:11:03.196Z,919.93
2019-04-03T00:12:03.186Z,919.91
2019-04-03T00:14:03.397Z,919.96
2019-04-03T00:15:03.174Z,919.95
2019-04-03T00:16:03.176Z,919.95
2019-04-03T00:17:03.141Z,919.95
2019-04-03T00:18:03.129Z,919.90
2019-04-03T00:19:03.113Z,919.93
2019-04-03T00:20:03.266Z,919.90
2019-04-03T00:21:03.141Z,919.88
2019-04-03T00:22:03.079Z,919.90
2019-04-03T00:23:03.085Z,919.88
2019-04-03T00:24:03.057Z,919.88
2019-04-03T00:25:03.046Z,919.87
2019-04-03T00:26:03.088Z,919.89
2019-04-03T00:27:03.027Z,919.94
2019-04-03T00:28:03.018Z,919.93
2019-04-03T00:29:03.008Z,919.90
2019-04-03T00:30:02.996Z,919.87
2019-04-03T00:31:03.035Z,919.85
2019-04-03T00:32:02.990Z,919.89
2019-04-03T00:33:02.991Z,919.87
2019-04-03T00:34:02.956Z,919.86
2019-04-03T00:35:02.949Z,919.83
2019-04-03T00:36:02.930Z,919.84
2019-04-03T00:37:03.030Z,919.85
2019-04-03T00:38:02.909Z,919.83
2019-04-03T00:39:02.895Z,919.80
2019-04-03T00:40:03.010Z,919.78
2019-04-03T00:41:02.878Z,919.78
2019-04-03T00:42:02.871Z,919.79
2019-04-03T00:43:02.952Z,919.81
2019-04-03T00:44:02.847Z,919.82
2019-04-03T00:45:02.831Z,919.79
2019-04-03T00:46:02.822Z,919.80
2019-04-03T00:47:02.814Z,919.78
2019-04-03T00:48:02.838Z,919.77
2019-04-03T00:49:02.988Z,919.77
2019-04-03T00:50:02.783Z,919.75
2019-04-03T00:51:02.815Z,919.71
2019-04-03T00:52:02.765Z,919.74
2019-04-03T00:53:02.749Z,919.71
2019-04-03T00:54:02.737Z,919.68
2019-04-03T00:57:02.703Z,919.69
2019-04-03T00:58:02.698Z,919.68
2019-04-03T00:59:02.681Z,919.69
2019-04-03T01:00:02.674Z,919.66
2019-04-03T01:01:02.767Z,919.69
2019-04-03T01:02:02.649Z,919.71
2019-04-03T01:03:02.646Z,919.70
2019-04-03T01:04:02.636Z,919.71
2019-04-03T01:05:02.619Z,919.69
2019-04-03T01:06:02.610Z,919.74
2019-04-03T01:07:02.747Z,919.75
2019-04-03T01:08:02.847Z,919.78
2019-04-03T01:09:02.633Z,919.77
2019-04-03T01:10:03.780Z,919.78
2019-04-03T01:11:02.564Z,919.78
2019-04-03T01:12:02.649Z,919.80
2019-04-03T01:13:02.589Z,919.82
2019-04-03T01:14:02.524Z,919.84
2019-04-03T01:15:02.602Z,919.83
2019-04-03T01:16:03.020Z,919.86
2019-04-03T01:17:04.360Z,919.78
2019-04-03T01:18:04.281Z,919.83
2019-04-03T01:19:05.098Z,919.85
2019-04-03T01:20:02.552Z,919.83
2019-04-03T01:21:27.281Z,919.86
2019-04-03T01:23:52.242Z,919.84
2019-04-03T01:24:52.060Z,919.84
2019-04-03T01:25:53.257Z,919.85
2019-04-03T01:26:52.016Z,919.84
2019-04-03T01:27:53.368Z,919.85
2019-04-03T01:28:52.198Z,919.81
2019-04-03T01:30:17.668Z,919.82
2019-04-03T01:30:53.248Z,919.83
2019-04-03T01:31:51.976Z,919.84
2019-04-03T01:32:52.024Z,919.82
2019-04-03T01:33:52.021Z,919.79
2019-04-03T01:34:51.933Z,919.80
2019-04-03T01:35:51.925Z,919.82
2019-04-03T01:36:51.913Z,919.82
2019-04-03T01:37:52.158Z,919.73
2019-04-03T01:38:51.896Z,919.75
2019-04-03T01:39:51.881Z,919.73
2019-04-03T01:40:51.874Z,919.73
2019-04-03T01:41:52.078Z,919.75
2019-04-03T01:43:16.727Z,919.74
2019-04-03T01:44:16.853Z,919.77
2019-04-03T01:45:16.636Z,919.77
2019-04-03T01:46:16.831Z,919.81
2019-04-03T01:47:16.653Z,919.77
2019-04-03T01:48:16.711Z,919.85
2019-04-03T01:49:16.597Z,919.82
2019-04-03T01:50:16.784Z,919.82
2019-04-03T01:51:16.574Z,919.79
2019-04-03T01:52:16.932Z,919.81
2019-04-03T01:54:16.654Z,919.81
2019-04-03T01:55:16.543Z,919.81
2019-04-03T01:56:16.531Z,919.82
2019-04-03T01:57:16.546Z,919.79
2019-04-03T01:58:16.507Z,919.77
2019-04-03T01:59:16.597Z,919.83
2019-04-03T02:00:16.575Z,919.80
2019-04-03T02:01:16.555Z,919.77
2019-04-03T02:02:16.467Z,919.80
2019-04-03T02:03:16.499Z,919.78
2019-04-03T02:05:43.271Z,919.73
2019-04-03T02:06:41.801Z,919.73
2019-04-03T02:07:44.465Z,919.75
2019-04-03T02:08:41.505Z,919.82
2019-04-03T02:09:41.303Z,919.83
2019-04-03T02:10:41.496Z,919.82
2019-04-03T02:11:41.287Z,919.79
2019-04-03T02:12:41.277Z,919.77
2019-04-03T02:13:41.362Z,919.73
2019-04-03T02:14:41.261Z,919.77
2019-04-03T02:15:41.298Z,919.80
2019-04-03T02:16:41.232Z,919.80
2019-04-03T02:17:41.235Z,919.80
2019-04-03T02:18:41.268Z,919.80
2019-04-03T02:19:41.237Z,919.80
2019-04-03T02:20:41.251Z,919.81
2019-04-03T02:21:41.181Z,919.74
2019-04-03T02:22:41.181Z,919.76
2019-04-03T02:23:48.604Z,919.76
2019-04-03T02:25:06.221Z,919.76
2019-04-03T02:26:06.255Z,919.74
2019-04-03T02:27:05.958Z,919.75
2019-04-03T02:28:05.928Z,919.76
2019-04-03T02:29:08.222Z,919.74
2019-04-03T02:30:05.913Z,919.70
2019-04-03T02:32:06.190Z,919.72
2019-04-03T02:33:05.905Z,919.68
2019-04-03T02:34:05.909Z,919.65
2019-04-03T02:35:07.773Z,919.69
2019-04-03T02:36:05.872Z,919.72
2019-04-03T02:37:05.930Z,919.67
2019-04-03T02:38:05.883Z,919.69
2019-04-03T02:39:05.867Z,919.69
2019-04-03T02:40:07.802Z,919.68
2019-04-03T02:41:05.831Z,919.63
2019-04-03T02:42:30.698Z,919.63
2019-04-03T02:43:30.853Z,919.60
2019-04-03T02:44:30.674Z,919.61
2019-04-03T02:45:30.794Z,919.59
2019-04-03T02:46:59.719Z,919.60
2019-04-03T02:47:55.503Z,919.62
2019-04-03T02:48:55.730Z,919.58
2019-04-03T02:49:55.790Z,919.60
2019-04-03T02:50:55.427Z,919.61
2019-04-03T02:51:55.607Z,919.61
2019-04-03T02:52:58.001Z,919.55
2019-04-03T02:53:55.441Z,919.58
2019-04-03T02:54:55.445Z,919.58
2019-04-03T02:56:20.181Z,919.62
2019-04-03T02:57:20.229Z,919.54
2019-04-03T02:58:22.736Z,919.56
2019-04-03T02:59:20.393Z,919.55
2019-04-03T03:00:20.136Z,919.55
2019-04-03T03:01:20.146Z,919.55
2019-04-03T03:02:20.280Z,919.60
2019-04-03T03:03:20.308Z,919.63
2019-04-03T03:04:21.930Z,919.66
2019-04-03T03:05:26.893Z,919.63
2019-04-03T03:06:20.116Z,919.66
2019-04-03T03:07:23.399Z,919.68
2019-04-03T03:08:22.755Z,919.67
2019-04-03T03:10:20.621Z,919.69
2019-04-03T03:11:24.511Z,919.73
2019-04-03T03:12:20.215Z,919.75
2019-04-03T03:13:20.008Z,919.78
2019-04-03T03:14:20.066Z,919.79
2019-04-03T03:15:45.531Z,919.78
2019-04-03T03:16:44.819Z,919.75
2019-04-03T03:17:45.259Z,919.76
2019-04-03T03:18:59.891Z,919.74
2019-04-03T03:20:11.541Z,919.70
2019-04-03T03:21:12.036Z,919.64
2019-04-03T03:22:09.636Z,919.65
2019-04-03T03:23:09.581Z,919.65
2019-04-03T03:24:29.750Z,919.61
2019-04-03T03:25:09.647Z,919.66
2019-04-03T03:26:09.867Z,919.68
2019-04-03T03:27:10.224Z,919.62
2019-04-03T03:28:13.199Z,919.68
2019-04-03T03:29:17.861Z,919.59
2019-04-03T03:30:32.722Z,919.63
2019-04-03T03:31:11.881Z,919.60
2019-04-03T03:32:18.879Z,919.64
2019-04-03T03:33:37.517Z,919.63
2019-04-03T03:34:51.308Z,919.64
2019-04-03T03:35:42.079Z,919.66
2019-04-03T03:37:59.676Z,919.64
2019-04-03T03:38:59.635Z,919.60
2019-04-03T03:39:59.487Z,919.60
2019-04-03T03:40:59.502Z,919.59
2019-04-03T03:41:59.471Z,919.59
2019-04-03T03:43:59.415Z,919.53
2019-04-03T03:45:32.655Z,919.54
2019-04-03T03:45:59.220Z,919.53
2019-04-03T03:47:01.031Z,919.56
2019-04-03T03:47:59.232Z,919.54
2019-04-03T03:50:25.132Z,919.44
2019-04-03T03:51:24.311Z,919.43
2019-04-03T03:52:49.065Z,919.43
2019-04-03T03:53:48.828Z,919.46
2019-04-03T03:54:51.245Z,919.53
2019-04-03T03:56:49.133Z,919.54
2019-04-03T03:57:50.790Z,919.57
2019-04-03T03:58:48.845Z,919.61
2019-04-03T04:00:13.575Z,919.59
2019-04-03T04:01:13.586Z,919.62
2019-04-03T04:04:15.321Z,919.58
2019-04-03T04:05:20.030Z,919.59
2019-04-03T04:06:14.840Z,919.57
2019-04-03T04:07:13.614Z,919.59
2019-04-03T04:10:38.806Z,919.63
2019-04-03T04:11:38.464Z,919.58
2019-04-03T04:13:03.570Z,919.56
2019-04-03T04:14:03.237Z,919.59
2019-04-03T04:15:03.200Z,919.56
2019-04-03T04:16:04.879Z,919.51
2019-04-03T04:17:03.220Z,919.51
2019-04-03T04:18:03.243Z,919.54
2019-04-03T04:19:03.186Z,919.49
2019-04-03T04:20:05.326Z,919.48
2019-04-03T04:21:03.627Z,919.52
2019-04-03T04:24:03.112Z,919.50
2019-04-03T04:25:03.158Z,919.49
2019-04-03T04:26:05.087Z,919.47
2019-04-03T04:27:28.043Z,919.47
2019-04-03T04:28:28.041Z,919.46
2019-04-03T04:29:29.865Z,919.46
2019-04-03T04:30:52.876Z,919.49
2019-04-03T04:31:52.656Z,919.48
2019-04-03T04:32:52.701Z,919.46
2019-04-03T04:34:52.680Z,919.52
2019-04-03T04:35:53.226Z,919.44
2019-04-03T04:36:53.053Z,919.48
2019-04-03T04:37:56.662Z,919.47
2019-04-03T04:38:57.929Z,919.45
2019-04-03T04:39:52.579Z,919.44
2019-04-03T04:40:52.768Z,919.42
2019-04-03T04:41:52.553Z,919.39
2019-04-03T04:42:52.544Z,919.37
2019-04-03T04:43:52.565Z,919.38
2019-04-03T04:44:52.523Z,919.37
2019-04-03T04:45:52.557Z,919.31
2019-04-03T04:46:52.551Z,919.32
2019-04-03T04:47:52.493Z,919.32
2019-04-03T04:48:52.493Z,919.26
2019-04-03T04:49:53.593Z,919.28
2019-04-03T04:50:54.228Z,919.26
2019-04-03T04:51:52.572Z,919.24
2019-04-03T04:52:52.745Z,919.28
2019-04-03T04:53:53.637Z,919.21
2019-04-03T04:54:55.654Z,919.21
2019-04-03T04:55:52.413Z,919.23
2019-04-03T04:56:52.420Z,919.21
2019-04-03T04:58:19.079Z,919.21
2019-04-03T04:59:17.374Z,919.18
2019-04-03T05:00:17.489Z,919.17
2019-04-03T05:01:18.140Z,919.16
2019-04-03T05:02:17.875Z,919.12
2019-04-03T05:03:17.300Z,919.11
2019-04-03T05:04:17.539Z,919.18
2019-04-03T05:05:17.292Z,919.19
2019-04-03T05:06:17.267Z,919.17
2019-04-03T05:07:20.544Z,919.21
2019-04-03T05:08:17.293Z,919.21
2019-04-03T05:09:17.341Z,919.21
2019-04-03T05:10:17.902Z,919.27
2019-04-03T05:11:17.274Z,919.25
2019-04-03T05:12:44.482Z,919.26
2019-04-03T05:13:46.375Z,919.24
2019-04-03T05:14:46.892Z,919.26
2019-04-03T05:15:42.196Z,919.24
2019-04-03T05:17:07.706Z,919.21
2019-04-03T05:17:42.003Z,919.21
2019-04-03T05:18:41.975Z,919.19
2019-04-03T05:21:08.750Z,919.19
2019-04-03T05:22:07.006Z,919.12
2019-04-03T05:23:08.943Z,919.14
2019-04-03T05:24:12.819Z,919.18
2019-04-03T05:25:31.568Z,919.16
2019-04-03T05:26:32.189Z,919.14
2019-04-03T05:27:33.338Z,919.15
2019-04-03T05:28:34.187Z,919.14
2019-04-03T05:29:34.203Z,919.13
2019-04-03T05:30:31.498Z,919.19
2019-04-03T05:31:31.465Z,919.17
2019-04-03T05:32:31.900Z,919.18
2019-04-03T05:33:31.500Z,919.20
2019-04-03T05:34:31.500Z,919.16
2019-04-03T05:35:31.435Z,919.17
2019-04-03T05:36:31.433Z,919.15
2019-04-03T05:37:31.606Z,919.20
2019-04-03T05:38:37.406Z,919.14
2019-04-03T05:39:31.383Z,919.13
2019-04-03T05:40:38.668Z,919.11
2019-04-03T05:41:58.517Z,919.07
2019-04-03T05:43:00.206Z,919.06
2019-04-03T05:43:56.287Z,919.04
2019-04-03T05:44:56.147Z,919.01
2019-04-03T05:45:57.365Z,919.01
2019-04-03T05:46:58.974Z,919.04
2019-04-03T05:47:56.123Z,918.96
2019-04-03T05:48:56.109Z,919.00
2019-04-03T05:49:56.486Z,918.99
2019-04-03T05:50:58.139Z,918.98
2019-04-03T05:51:56.077Z,918.96
2019-04-03T05:52:56.065Z,918.97
2019-04-03T05:53:56.306Z,918.94
2019-04-03T05:54:56.048Z,918.92
2019-04-03T05:55:56.131Z,918.95
2019-04-03T05:56:56.077Z,918.93
2019-04-03T05:57:56.220Z,918.93
2019-04-03T05:59:00.393Z,918.90
2019-04-03T06:00:13.674Z,918.86
2019-04-03T06:02:14.050Z,918.85
2019-04-03T06:03:21.889Z,918.81
2019-04-03T06:04:45.837Z,918.82
2019-04-03T06:05:45.584Z,918.77
2019-04-03T06:06:46.869Z,918.77
2019-04-03T06:08:45.548Z,918.73
2019-04-03T06:09:45.533Z,918.72
2019-04-03T06:10:45.530Z,918.72
2019-04-03T06:11:45.524Z,918.69
2019-04-03T06:12:46.349Z,918.71
2019-04-03T06:13:48.575Z,918.67
2019-04-03T06:14:45.532Z,918.70
2019-04-03T06:15:45.712Z,918.66
2019-04-03T06:16:45.538Z,918.74
2019-04-03T06:18:10.498Z,918.71
2019-04-03T06:19:10.413Z,918.72
2019-04-03T06:20:11.344Z,918.70
2019-04-03T06:21:10.472Z,918.66
2019-04-03T06:22:10.759Z,918.60
2019-04-03T06:23:10.502Z,918.60
2019-04-03T06:25:35.199Z,918.62
2019-04-03T06:26:59.913Z,918.64
2019-04-03T06:28:00.412Z,918.60
2019-04-03T06:29:35.157Z,918.56
2019-04-03T06:30:02.103Z,918.56
2019-04-03T06:31:27.813Z,918.54
2019-04-03T06:31:59.915Z,918.46
2019-04-03T06:33:01.963Z,918.48
2019-04-03T06:34:01.845Z,918.42
2019-04-03T06:35:00.042Z,918.48
2019-04-03T06:35:59.857Z,918.44
2019-04-03T06:36:59.856Z,918.45
2019-04-03T06:37:59.819Z,918.47
2019-04-03T06:38:59.792Z,918.43
2019-04-03T06:40:02.329Z,918.42
2019-04-03T06:40:59.769Z,918.41
2019-04-03T06:42:59.902Z,918.36
2019-04-03T06:43:59.754Z,918.35
2019-04-03T06:44:59.728Z,918.30
2019-04-03T06:45:59.978Z,918.30
2019-04-03T06:47:00.838Z,918.27
2019-04-03T06:47:59.697Z,918.23
2019-04-03T06:48:59.824Z,918.20
2019-04-03T06:49:59.880Z,918.18
2019-04-03T06:50:59.666Z,918.12
2019-04-03T06:51:59.653Z,918.12
2019-04-03T06:52:59.660Z,918.14
2019-04-03T06:53:59.994Z,918.08
2019-04-03T06:54:59.676Z,918.09
2019-04-03T06:55:59.631Z,918.06
2019-04-03T06:57:13.860Z,918.09
2019-04-03T06:58:00.935Z,918.09
2019-04-03T06:58:59.581Z,918.08
2019-04-03T06:59:59.570Z,918.05
2019-04-03T07:00:59.716Z,918.07
2019-04-03T07:01:59.551Z,918.05
2019-04-03T07:03:24.390Z,918.04
2019-04-03T07:04:49.157Z,918.03
2019-04-03T07:05:49.145Z,918.01
2019-04-03T07:06:49.282Z,917.98
2019-04-03T07:07:49.126Z,917.95
2019-04-03T07:08:49.207Z,917.91
2019-04-03T07:09:50.823Z,917.92
2019-04-03T07:10:55.072Z,917.91
2019-04-03T07:12:16.006Z,917.92
2019-04-03T07:13:15.229Z,917.85
2019-04-03T07:14:14.036Z,917.85
2019-04-03T07:15:14.203Z,917.86
2019-04-03T07:16:39.040Z,917.84
2019-04-03T07:17:38.856Z,917.83
2019-04-03T07:18:39.149Z,917.84
2019-04-03T07:19:40.970Z,917.84
2019-04-03T07:20:38.772Z,917.79
2019-04-03T07:21:38.985Z,917.81
2019-04-03T07:22:38.813Z,917.81
2019-04-03T07:25:03.943Z,917.73
2019-04-03T07:26:05.156Z,917.74
2019-04-03T07:27:06.067Z,917.73
2019-04-03T07:28:18.278Z,917.74
2019-04-03T07:29:03.588Z,917.73
2019-04-03T07:30:03.597Z,917.71
2019-04-03T07:31:28.511Z,917.69
2019-04-03T07:32:28.484Z,917.63
2019-04-03T07:33:28.685Z,917.66
2019-04-03T07:34:28.602Z,917.63
2019-04-03T07:35:31.552Z,917.62
2019-04-03T07:36:53.090Z,917.59
2019-04-03T07:38:18.083Z,917.60
2019-04-03T07:39:19.981Z,917.55
2019-04-03T07:40:18.708Z,917.56
2019-04-03T07:41:17.883Z,917.55
2019-04-03T07:42:17.806Z,917.49
2019-04-03T07:43:17.800Z,917.49
2019-04-03T07:44:17.835Z,917.48
2019-04-03T07:45:44.002Z,917.43
2019-04-03T07:46:42.829Z,917.46
2019-04-03T07:47:42.818Z,917.44
2019-04-03T07:48:42.811Z,917.44
2019-04-03T07:49:42.933Z,917.45
2019-04-03T07:50:43.040Z,917.44
2019-04-03T07:51:43.724Z,917.47
2019-04-03T07:52:47.430Z,917.43
2019-04-03T07:53:42.975Z,917.41
2019-04-03T07:54:42.815Z,917.39
2019-04-03T07:56:25.569Z,917.41
2019-04-03T07:57:09.762Z,917.35
2019-04-03T07:58:07.634Z,917.34
2019-04-03T07:59:07.649Z,917.36
2019-04-03T08:00:14.956Z,917.38
2019-04-03T08:01:09.864Z,917.35
2019-04-03T08:02:07.647Z,917.34
2019-04-03T08:03:10.794Z,917.37
2019-04-03T08:04:07.726Z,917.35
2019-04-03T08:05:09.579Z,917.36
2019-04-03T08:06:07.645Z,917.36
2019-04-03T08:07:07.675Z,917.36
2019-04-03T08:08:08.792Z,917.35
2019-04-03T08:09:09.341Z,917.32
2019-04-03T08:10:07.766Z,917.36
2019-04-03T08:11:07.809Z,917.32
2019-04-03T08:12:09.501Z,917.34
2019-04-03T08:13:07.686Z,917.33
2019-04-03T08:14:09.099Z,917.30
2019-04-03T08:15:08.698Z,917.28
2019-04-03T08:16:07.517Z,917.30
2019-04-03T08:17:07.841Z,917.29
2019-04-03T08:18:07.611Z,917.27
2019-04-03T08:19:23.193Z,917.26
2019-04-03T08:20:07.425Z,917.22
2019-04-03T08:22:07.480Z,917.21
2019-04-03T08:23:07.358Z,917.15
2019-04-03T08:24:08.087Z,917.18
2019-04-03T08:25:10.621Z,917.17
2019-04-03T08:26:07.333Z,917.15
2019-04-03T08:27:08.643Z,917.10
2019-04-03T08:28:07.426Z,917.12
2019-04-03T08:29:07.298Z,917.08
2019-04-03T08:30:08.565Z,917.11
2019-04-03T08:31:10.847Z,917.06
2019-04-03T08:32:09.405Z,917.09
2019-04-03T08:33:16.078Z,917.07
2019-04-03T08:34:32.738Z,917.07
2019-04-03T08:35:35.762Z,917.09
2019-04-03T08:36:32.133Z,917.02
2019-04-03T08:37:32.793Z,916.99
2019-04-03T08:38:32.336Z,916.96
2019-04-03T08:39:32.263Z,916.97
2019-04-03T08:40:57.158Z,916.97
2019-04-03T08:41:57.269Z,916.92
2019-04-03T08:42:59.532Z,916.91
2019-04-03T08:43:58.877Z,916.90
2019-04-03T08:44:56.937Z,916.89
2019-04-03T08:45:56.870Z,916.85
2019-04-03T08:47:21.746Z,916.88
2019-04-03T08:48:21.645Z,916.86
2019-04-03T08:49:21.642Z,916.83
2019-04-03T08:50:21.789Z,916.83
2019-04-03T08:51:21.613Z,916.80
2019-04-03T08:52:46.749Z,916.82
2019-04-03T08:54:11.379Z,916.79
2019-04-03T08:55:14.137Z,916.78
2019-04-03T08:56:11.660Z,916.79
2019-04-03T08:57:11.440Z,916.81
2019-04-03T08:58:11.180Z,916.83
2019-04-03T08:59:13.145Z,916.79
2019-04-03T09:00:13.193Z,916.80
2019-04-03T09:01:39.427Z,916.78
2019-04-03T09:02:35.946Z,916.76
2019-04-03T09:03:35.988Z,916.75
2019-04-03T09:04:35.926Z,916.69
2019-04-03T09:05:35.916Z,916.72
2019-04-03T09:07:01.132Z,916.69
2019-04-03T09:08:03.191Z,916.68
2019-04-03T09:09:01.206Z,916.65
2019-04-03T09:10:01.442Z,916.64
2019-04-03T09:11:00.873Z,916.69
2019-04-03T09:12:01.290Z,916.66
2019-04-03T09:13:00.908Z,916.66
2019-04-03T09:14:01.044Z,916.63
2019-04-03T09:15:00.939Z,916.61
2019-04-03T09:16:00.862Z,916.60
2019-04-03T09:17:25.809Z,916.59
2019-04-03T09:18:25.663Z,916.61
2019-04-03T09:19:42.211Z,916.60
2019-04-03T09:20:27.809Z,916.58
2019-04-03T09:21:25.627Z,916.57
2019-04-03T09:22:25.765Z,916.55
2019-04-03T09:23:25.609Z,916.56
2019-04-03T09:24:28.768Z,916.58
2019-04-03T09:25:25.586Z,916.54
2019-04-03T09:26:25.571Z,916.57
2019-04-03T09:27:25.568Z,916.53
2019-04-03T09:28:25.699Z,916.53
2019-04-03T09:29:25.560Z,916.57
2019-04-03T09:30:25.534Z,916.56
2019-04-03T09:31:26.765Z,916.56
2019-04-03T09:32:25.731Z,916.52
2019-04-03T09:33:26.361Z,916.56
2019-04-03T09:34:28.720Z,916.55
2019-04-03T09:35:25.681Z,916.51
2019-04-03T09:36:25.835Z,916.51
2019-04-03T09:37:25.462Z,916.49
2019-04-03T09:38:25.506Z,916.49
2019-04-03T09:39:25.743Z,916.48
2019-04-03T09:40:25.768Z,916.47
2019-04-03T09:41:25.442Z,916.44
2019-04-03T09:42:25.610Z,916.42
2019-04-03T09:43:25.681Z,916.45
2019-04-03T09:44:25.942Z,916.43
2019-04-03T09:45:27.633Z,916.44
2019-04-03T09:46:25.734Z,916.44
2019-04-03T09:47:25.354Z,916.37
2019-04-03T09:48:25.375Z,916.41
2019-04-03T09:50:25.430Z,916.42
2019-04-03T09:51:52.555Z,916.39
2019-04-03T09:52:54.204Z,916.36
2019-04-03T09:53:51.411Z,916.37
2019-04-03T09:55:14.930Z,916.37
2019-04-03T09:56:15.414Z,916.32
2019-04-03T09:57:14.886Z,916.32
2019-04-03T09:58:14.928Z,916.32
2019-04-03T09:59:16.282Z,916.32
2019-04-03T10:00:14.853Z,916.30
2019-04-03T10:01:18.020Z,916.28
2019-04-03T10:02:14.926Z,916.24
2019-04-03T10:03:14.894Z,916.27
2019-04-03T10:04:39.914Z,916.22
2019-04-03T10:05:39.615Z,916.23
2019-04-03T10:06:39.602Z,916.19
2019-04-03T10:07:39.687Z,916.24
2019-04-03T10:08:40.411Z,916.21
2019-04-03T10:09:41.118Z,916.15
2019-04-03T10:10:39.616Z,916.21
2019-04-03T10:11:39.777Z,916.19
2019-04-03T10:13:39.643Z,916.17
2019-04-03T10:14:39.528Z,916.15
2019-04-03T10:15:39.512Z,916.15
2019-04-03T10:16:39.707Z,916.17
2019-04-03T10:17:39.710Z,916.16
2019-04-03T10:21:39.557Z,916.09
2019-04-03T10:22:41.733Z,916.17
2019-04-03T10:23:41.453Z,916.19
2019-04-03T10:24:39.686Z,916.06
2019-04-03T10:25:39.504Z,916.09
2019-04-03T10:26:40.831Z,916.09
2019-04-03T10:27:42.649Z,916.05
2019-04-03T10:28:42.589Z,916.07
2019-04-03T10:29:39.361Z,916.08
2019-04-03T10:31:39.643Z,916.15
2019-04-03T10:32:39.375Z,916.04
2019-04-03T10:33:39.737Z,916.10
2019-04-03T10:34:39.350Z,916.07
2019-04-03T10:35:39.841Z,916.01
2019-04-03T10:36:40.160Z,916.06
2019-04-03T10:37:41.426Z,916.01
2019-04-03T10:38:41.725Z,916.06
2019-04-03T10:39:43.341Z,916.12
2019-04-03T10:40:39.278Z,916.24
2019-04-03T10:41:39.439Z,916.16
2019-04-03T10:42:39.252Z,916.11
2019-04-03T10:43:39.595Z,916.14
2019-04-03T10:44:39.213Z,916.18
2019-04-03T10:45:39.198Z,916.19
2019-04-03T10:46:39.385Z,916.12
2019-04-03T10:47:43.382Z,916.18
2019-04-03T10:48:39.175Z,916.18
2019-04-03T10:51:41.588Z,916.17
2019-04-03T10:52:39.195Z,916.15
2019-04-03T10:53:39.155Z,916.18
2019-04-03T10:54:41.395Z,916.24
2019-04-03T10:55:39.130Z,916.17
2019-04-03T10:56:39.125Z,916.15
2019-04-03T10:57:39.285Z,916.18
2019-04-03T10:58:42.252Z,916.15
2019-04-03T10:59:39.256Z,916.06
2019-04-03T11:00:39.218Z,916.10
2019-04-03T11:01:39.034Z,916.12
2019-04-03T11:03:04.170Z,916.17
2019-04-03T11:04:05.924Z,915.98
2019-04-03T11:05:04.152Z,916.16
2019-04-03T11:06:05.162Z,916.03
2019-04-03T11:07:03.912Z,916.06
2019-04-03T11:08:28.749Z,916.10
2019-04-03T11:09:28.958Z,916.09
2019-04-03T11:10:28.725Z,916.12
2019-04-03T11:11:29.678Z,916.13
2019-04-03T11:12:31.922Z,916.07
2019-04-03T11:14:03.017Z,916.12
2019-04-03T11:14:28.683Z,916.06
2019-04-03T11:15:53.659Z,916.09
2019-04-03T11:16:53.736Z,916.11
2019-04-03T11:17:55.790Z,916.11
2019-04-03T11:19:00.131Z,916.05
2019-04-03T11:20:18.469Z,916.09
2019-04-03T11:21:18.579Z,916.12
2019-04-03T11:22:18.235Z,916.14
2019-04-03T11:23:21.615Z,916.14
2019-04-03T11:24:43.317Z,916.21
2019-04-03T11:25:45.836Z,916.10
2019-04-03T11:26:43.162Z,916.12
2019-04-03T11:27:45.032Z,916.06
2019-04-03T11:28:43.684Z,916.03
2019-04-03T11:30:43.170Z,916.05
2019-04-03T11:31:43.439Z,916.17
2019-04-03T11:32:43.042Z,915.98
2019-04-03T11:33:45.929Z,915.86
2019-04-03T11:34:43.030Z,916.10
2019-04-03T11:35:43.572Z,915.85
2019-04-03T11:36:43.167Z,916.09
2019-04-03T11:38:14.062Z,915.95
2019-04-03T11:40:00.541Z,916.13
2019-04-03T11:40:34.677Z,916.13
2019-04-03T11:41:32.585Z,916.04
2019-04-03T11:43:32.698Z,916.06
2019-04-03T11:44:32.768Z,916.08
2019-04-03T11:45:32.678Z,916.06
2019-04-03T11:46:32.601Z,916.11
2019-04-03T11:47:32.569Z,916.11
2019-04-03T11:48:32.607Z,915.96
2019-04-03T11:49:57.784Z,916.03
2019-04-03T11:51:24.315Z,916.24
2019-04-03T11:52:22.434Z,916.08
2019-04-03T11:53:25.925Z,916.13
2019-04-03T11:54:22.808Z,916.11
2019-04-03T11:55:22.478Z,916.05
2019-04-03T11:56:22.780Z,916.08
2019-04-03T11:57:22.312Z,916.16
2019-04-03T11:58:22.574Z,916.09
2019-04-03T11:59:24.377Z,916.18
2019-04-03T12:00:24.413Z,916.15
2019-04-03T12:01:22.262Z,916.17
2019-04-03T12:02:22.326Z,916.19
2019-04-03T12:03:22.254Z,916.18
2019-04-03T12:04:22.253Z,916.23
2019-04-03T12:06:47.075Z,916.16
2019-04-03T12:07:56.539Z,916.06
2019-04-03T12:08:49.087Z,916.17
2019-04-03T12:09:49.390Z,916.14
2019-04-03T12:10:47.293Z,916.22
2019-04-03T12:13:47.153Z,916.07
2019-04-03T12:15:11.930Z,916.13
2019-04-03T12:16:11.760Z,916.02
2019-04-03T12:17:11.750Z,916.10
2019-04-03T12:18:11.805Z,916.15
2019-04-03T12:20:27.412Z,916.13
2019-04-03T12:21:14.155Z,916.17
2019-04-03T12:22:12.035Z,916.19
2019-04-03T12:23:11.798Z,916.17
2019-04-03T12:24:37.390Z,916.11
2019-04-03T12:27:14.646Z,916.10
2019-04-03T12:28:13.016Z,916.07
2019-04-03T12:29:54.331Z,916.02
2019-04-03T12:31:09.638Z,916.17
2019-04-03T12:31:36.798Z,916.04
2019-04-03T12:32:42.955Z,916.04
2019-04-03T12:33:37.716Z,916.03
2019-04-03T12:35:01.205Z,916.05
2019-04-03T12:36:27.586Z,916.02
2019-04-03T12:37:26.174Z,916.04
2019-04-03T12:38:26.193Z,916.11
2019-04-03T12:39:41.417Z,915.95
2019-04-03T12:40:25.949Z,916.09
2019-04-03T12:41:27.426Z,916.10
2019-04-03T12:42:26.150Z,916.05
2019-04-03T12:43:33.381Z,916.18
2019-04-03T12:45:26.913Z,916.17
2019-04-03T12:46:28.079Z,916.32
2019-04-03T12:47:28.007Z,916.26
2019-04-03T12:51:54.942Z,916.24
2019-04-03T12:52:54.953Z,916.27
2019-04-03T12:53:54.920Z,916.21
2019-04-03T12:54:54.909Z,916.26
2019-04-03T12:55:57.119Z,916.36
2019-04-03T12:56:54.941Z,916.27
2019-04-03T12:57:54.878Z,916.18
2019-04-03T12:58:54.862Z,916.32
2019-04-03T12:59:54.852Z,916.22
2019-04-03T13:00:54.842Z,916.29
2019-04-03T13:01:55.032Z,916.31
2019-04-03T13:02:55.361Z,916.32
2019-04-03T13:03:56.368Z,916.32
2019-04-03T13:04:54.885Z,916.42
2019-04-03T13:05:55.008Z,916.39
2019-04-03T13:06:54.775Z,916.36
2019-04-03T13:07:54.771Z,916.38
2019-04-03T13:08:54.961Z,916.23
2019-04-03T13:09:54.742Z,916.26
2019-04-03T13:10:54.926Z,916.41
2019-04-03T13:11:55.075Z,916.32
2019-04-03T13:12:56.538Z,916.33
2019-04-03T13:13:55.062Z,916.44
2019-04-03T13:14:55.121Z,916.35
2019-04-03T13:15:55.026Z,916.37
2019-04-03T13:16:54.673Z,916.28
2019-04-03T13:17:54.660Z,916.41
2019-04-03T13:18:54.651Z,916.35
2019-04-03T13:19:54.636Z,916.40
2019-04-03T13:20:55.306Z,916.40
2019-04-03T13:21:54.865Z,916.30
2019-04-03T13:22:55.040Z,916.31
2019-04-03T13:23:54.593Z,916.38
2019-04-03T13:24:54.584Z,916.38
2019-04-03T13:25:54.620Z,916.30
2019-04-03T13:26:57.152Z,916.33
2019-04-03T13:27:54.554Z,916.41
2019-04-03T13:28:54.543Z,916.44
2019-04-03T13:29:54.533Z,916.36
2019-04-03T13:30:54.519Z,916.36
2019-04-03T13:31:54.509Z,916.42
2019-04-03T13:33:00.170Z,916.34
2019-04-03T13:34:19.833Z,916.51
2019-04-03T13:35:19.642Z,916.37
2019-04-03T13:36:19.825Z,916.37
2019-04-03T13:37:22.377Z,916.36
2019-04-03T13:38:21.691Z,916.38
2019-04-03T13:39:19.247Z,916.46
2019-04-03T13:40:19.231Z,916.39
2019-04-03T13:41:19.232Z,916.45
2019-04-03T13:42:19.211Z,916.39